You are not logged in, Click here to log in
ICAO: VVNB Country: 越南首都河內
Latitude: 21.2187 Longitude: 105.804
Total Arrivals: 23 Total Departures: 24
Latest Arrival: BR397 (RCTP-VVNB)KE. CHIH-HAO Latest Departure: BR398 (VVNB-RCTP)KE. CHIH-HAO
Scenery:
METAR : VVNB 232000Z VRB02KT 8000 NSC 25/24 Q1006 NOSIG

內排國際機場 HAN